Time;durP1;ratioP1;P1;durP2;ratioP2;P2;SDS_P1;SDS_P2;PMS_P1;PMS_P2;Temp;Humidity;BMP_temperature;BMP_pressure;BME280_temperature;BME280_humidity;BME280_pressure;Samples;Min_cycle;Max_cycle;Signal;HPM_P1;HPM_P2
2021/03/19 00:00:20;;;;;;;7.47;6.83;;;;;;;2.15;100.00;90117.66;4994782;28;20208;-85
2021/03/19 00:02:46;;;;;;;6.53;5.83;;;;;;;2.07;100.00;90111.16;4994498;28;20200;-84
2021/03/19 00:05:16;;;;;;;7.43;6.77;;;;;;;2.09;100.00;90088.41;4994384;28;20200;-84
2021/03/19 00:07:45;;;;;;;6.77;6.10;;;;;;;2.06;100.00;90073.38;4994380;28;20228;-84
2021/03/19 00:10:13;;;;;;;9.23;6.50;;;;;;;2.05;100.00;90076.25;4994538;28;20291;-84
2021/03/19 00:12:40;;;;;;;7.07;6.47;;;;;;;2.04;100.00;90049.56;4994286;28;20350;-84
2021/03/19 00:15:10;;;;;;;5.97;5.47;;;;;;;2.19;100.00;89999.59;4994405;28;20210;-84
2021/03/19 00:17:37;;;;;;;7.80;6.53;;;;;;;2.10;100.00;90011.53;4994583;28;20197;-85
2021/03/19 00:20:06;;;;;;;7.07;6.37;;;;;;;2.09;100.00;90025.50;4994352;28;20200;-84
2021/03/19 00:22:33;;;;;;;6.87;6.27;;;;;;;2.23;100.00;90016.16;4994266;28;20636;-84
2021/03/19 00:25:00;;;;;;;7.00;6.37;;;;;;;2.21;100.00;90026.00;4994455;28;20231;-84
2021/03/19 00:27:27;;;;;;;6.70;6.10;;;;;;;2.24;100.00;90032.47;4994368;28;20255;-84
2021/03/19 00:29:54;;;;;;;6.70;6.10;;;;;;;2.24;100.00;90027.28;4993517;28;20219;-84
2021/03/19 00:32:22;;;;;;;6.70;6.10;;;;;;;2.19;100.00;90037.66;4994117;28;20315;-84
2021/03/19 00:34:48;;;;;;;6.73;6.13;;;;;;;2.30;100.00;90034.03;4994042;28;20247;-84
2021/03/19 00:37:15;;;;;;;7.30;6.70;;;;;;;2.19;100.00;90071.31;4993979;28;20246;-84
2021/03/19 00:39:42;;;;;;;7.37;6.77;;;;;;;2.16;100.00;90077.03;4993883;28;20196;-84
2021/03/19 00:42:09;;;;;;;7.40;6.73;;;;;;;2.17;100.00;90060.44;4993786;28;20200;-84
2021/03/19 00:44:37;;;;;;;6.73;6.13;;;;;;;2.16;100.00;90048.53;4993627;28;20192;-84
2021/03/19 00:47:04;;;;;;;7.87;7.17;;;;;;;2.13;100.00;90031.72;4993597;28;20185;-84
2021/03/19 00:49:33;;;;;;;7.87;7.10;;;;;;;2.21;100.00;90001.94;4993931;28;20582;-84
2021/03/19 00:52:00;;;;;;;8.37;7.57;;;;;;;2.12;100.00;90020.59;4993387;28;20239;-86
2021/03/19 00:54:27;;;;;;;7.93;7.23;;;;;;;2.17;100.00;90022.38;4993620;28;20255;-86
2021/03/19 00:56:53;;;;;;;7.97;7.17;;;;;;;2.25;100.00;90028.84;4993582;28;20200;-86
2021/03/19 00:59:20;;;;;;;7.37;6.77;;;;;;;2.16;100.00;90072.63;4994564;28;20203;-86
2021/03/19 01:01:47;;;;;;;8.07;7.30;;;;;;;2.27;100.00;90073.38;4993256;28;20200;-86
2021/03/19 01:04:14;;;;;;;8.53;7.73;;;;;;;2.14;100.00;90116.88;4993804;28;20291;-87
2021/03/19 01:06:42;;;;;;;7.00;6.30;;;;;;;2.21;100.00;90101.09;4993467;28;20287;-86
2021/03/19 01:09:09;;;;;;;7.70;7.00;;;;;;;2.22;100.00;90094.88;4993166;28;20316;-86
2021/03/19 01:11:36;;;;;;;8.30;7.30;;;;;;;2.33;100.00;90062.75;4993702;28;20254;-87
2021/03/19 01:14:03;;;;;;;7.27;6.57;;;;;;;2.26;100.00;90069.25;4993211;28;20200;-87
2021/03/19 01:16:30;;;;;;;7.70;7.00;;;;;;;2.32;100.00;90042.28;4993274;28;20254;-86
2021/03/19 01:18:57;;;;;;;7.80;7.00;;;;;;;2.23;100.00;90065.38;4993295;28;20207;-86
2021/03/19 01:21:24;;;;;;;6.77;6.10;;;;;;;2.09;100.00;90103.16;4993212;28;20224;-86
2021/03/19 01:23:52;;;;;;;6.87;6.27;;;;;;;2.16;100.00;90093.31;4993091;28;20196;-86
2021/03/19 01:26:18;;;;;;;7.83;7.10;;;;;;;2.13;100.00;90091.25;4993292;28;20259;-86
2021/03/19 01:28:45;;;;;;;8.07;7.23;;;;;;;2.10;100.00;90069.25;4993063;28;20231;-87
2021/03/19 01:31:14;;;;;;;7.00;6.30;;;;;;;2.18;100.00;90036.09;4993028;28;20207;-85
2021/03/19 01:33:41;;;;;;;7.83;7.13;;;;;;;2.08;100.00;90047.25;4993279;28;20701;-86
2021/03/19 01:36:08;;;;;;;7.70;6.93;;;;;;;2.04;100.00;90059.16;4993286;28;20266;-86
2021/03/19 01:38:37;;;;;;;8.20;7.40;;;;;;;1.99;100.00;90069.50;4992948;28;20196;-86
2021/03/19 01:41:06;;;;;;;7.93;7.13;;;;;;;2.10;100.00;90058.13;4992966;28;20618;-86
2021/03/19 01:43:34;;;;;;;8.50;7.70;;;;;;;2.24;100.00;90041.00;4992894;28;20247;-87
2021/03/19 01:46:38;;;;;;;8.00;6.93;;;;;;;2.20;100.00;90063.28;4992795;28;20743;-87
2021/03/19 01:49:42;;;;;;;8.13;7.40;;;;;;;2.22;100.00;90065.59;4992750;28;20228;-86
2021/03/19 01:52:46;;;;;;;7.67;6.97;;;;;;;2.20;100.00;90078.06;4993046;28;20203;-86
2021/03/19 01:55:49;;;;;;;8.10;7.33;;;;;;;2.21;100.00;90090.72;4992509;28;20259;-87
2021/03/19 01:58:53;;;;;;;7.73;6.70;;;;;;;2.22;100.00;90107.84;4992812;28;20242;-87
2021/03/19 02:01:57;;;;;;;9.87;8.50;;;;;;;1.95;100.00;90185.72;4993014;28;20609;-86
2021/03/19 02:05:00;;;;;;;7.57;6.87;;;;;;;1.86;100.00;90224.25;4992991;28;20631;-86
2021/03/19 02:08:12;;;;;;;54.60;9.10;;;;;;;1.73;100.00;90227.28;4992539;28;20227;-87
2021/03/19 02:11:16;;;;;;;6.67;5.97;;;;;;;1.83;100.00;90192.91;4965702;28;20716;-86
2021/03/19 02:14:20;;;;;;;7.00;6.13;;;;;;;1.92;100.00;90157.75;4993043;28;20196;-87
2021/03/19 02:17:23;;;;;;;7.40;6.70;;;;;;;1.89;100.00;90169.38;4992615;28;20223;-87
2021/03/19 02:20:36;;;;;;;7.63;6.93;;;;;;;1.85;100.00;90196.03;4992678;28;20282;-86
2021/03/19 02:23:39;;;;;;;5.90;5.40;;;;;;;1.70;100.00;90245.94;4957972;28;20287;-86
2021/03/19 02:26:43;;;;;;;9.57;8.57;;;;;;;1.62;100.00;90283.38;4992923;28;20239;-87
2021/03/19 02:29:48;;;;;;;9.13;8.23;;;;;;;1.76;100.00;90263.00;4992537;28;20224;-86
2021/03/19 02:32:18;;;;;;;8.63;7.73;;;;;;;1.57;100.00;90329.16;4992739;28;20281;-87
2021/03/19 02:34:48;;;;;;;8.80;7.87;;;;;;;1.61;100.00;90345.72;4992862;28;20647;-87
2021/03/19 02:37:19;;;;;;;8.23;7.43;;;;;;;1.67;100.00;90345.50;4992749;28;20184;-87
2021/03/19 02:39:46;;;;;;;7.60;6.80;;;;;;;1.49;100.00;90418.34;4992760;28;20556;-87
2021/03/19 02:42:15;;;;;;;8.53;6.30;;;;;;;1.61;100.00;90393.06;4992544;28;20231;-87
2021/03/19 02:44:42;;;;;;;7.77;6.97;;;;;;;1.62;100.00;90399.03;4992297;28;20206;-86
2021/03/19 02:47:11;;;;;;;7.73;7.00;;;;;;;1.50;100.00;90430.25;4992561;28;20203;-86
2021/03/19 02:49:39;;;;;;;7.43;6.70;;;;;;;1.46;100.00;90447.28;4992524;28;20303;-87
2021/03/19 02:52:06;;;;;;;7.30;6.67;;;;;;;1.64;100.00;90428.03;4992551;28;20192;-86
2021/03/19 02:54:33;;;;;;;7.10;6.40;;;;;;;1.58;100.00;90460.03;4996135;28;20192;-87
2021/03/19 02:57:00;;;;;;;9.23;7.87;;;;;;;1.45;100.00;90507.78;4996092;28;20680;-86
2021/03/19 02:59:27;;;;;;;10.90;9.80;;;;;;;1.27;100.00;90552.06;4995668;28;20239;-87
2021/03/19 03:01:54;;;;;;;9.83;8.77;;;;;;;1.28;100.00;90543.28;4995709;28;20200;-87
2021/03/19 03:04:21;;;;;;;8.70;7.90;;;;;;;1.36;100.00;90519.59;4995886;28;20192;-87
2021/03/19 03:06:50;;;;;;;7.80;6.60;;;;;;;1.43;100.00;90507.25;4995582;28;20302;-86
2021/03/19 03:09:19;;;;;;;8.10;6.90;;;;;;;1.44;100.00;90513.97;4995650;28;20216;-87
2021/03/19 03:11:49;;;;;;;9.63;8.67;;;;;;;1.48;100.00;90530.56;4995528;28;20246;-86
2021/03/19 03:14:18;;;;;;;10.07;8.83;;;;;;;1.60;100.00;90530.44;4995490;28;20239;-86
2021/03/19 03:16:46;;;;;;;19.30;13.70;;;;;;;1.59;100.00;90559.91;4995500;28;20287;-86
2021/03/19 03:19:16;;;;;;;22.07;15.00;;;;;;;1.35;100.00;90631.78;4995911;28;20196;-87
2021/03/19 03:21:43;;;;;;;15.63;12.27;;;;;;;1.10;100.00;90692.50;4995908;28;20204;-86
2021/03/19 03:24:13;;;;;;;14.13;12.43;;;;;;;1.01;100.00;90706.88;4995676;28;20189;-86
2021/03/19 03:26:41;;;;;;;14.20;12.00;;;;;;;0.78;100.00;90766.47;4995206;28;20224;-87
2021/03/19 03:29:09;;;;;;;12.30;11.10;;;;;;;0.74;100.00;90757.63;4995352;28;20771;-87
2021/03/19 03:31:36;;;;;;;10.33;9.33;;;;;;;0.90;100.00;90710.31;4995381;28;20228;-87
2021/03/19 03:34:04;;;;;;;9.03;8.13;;;;;;;1.03;100.00;90673.81;4995547;28;20219;-87
2021/03/19 03:36:32;;;;;;;8.50;7.70;;;;;;;1.03;100.00;90665.28;4994933;28;20193;-86
2021/03/19 03:39:00;;;;;;;7.73;7.00;;;;;;;0.99;100.00;90685.66;4995005;28;20668;-86
2021/03/19 03:41:28;;;;;;;7.97;7.17;;;;;;;0.89;100.00;90691.44;4995101;28;20193;-85
2021/03/19 03:43:55;;;;;;;9.10;7.33;;;;;;;1.04;100.00;90675.38;4994866;28;20200;-86
2021/03/19 03:46:25;;;;;;;7.67;6.90;;;;;;;0.88;100.00;90702.81;4994569;28;20713;-85
2021/03/19 03:48:54;;;;;;;8.00;7.20;;;;;;;0.90;100.00;90700.78;4994742;28;20282;-87
2021/03/19 03:51:21;;;;;;;11.70;7.70;;;;;;;0.95;100.00;90676.81;4994712;28;20199;-86
2021/03/19 03:53:47;;;;;;;12.63;11.43;;;;;;;1.13;100.00;90642.16;4994671;28;20192;-86
2021/03/19 03:56:15;;;;;;;14.07;12.70;;;;;;;1.15;100.00;90648.66;4994898;28;20214;-86
2021/03/19 03:58:43;;;;;;;12.43;10.17;;;;;;;1.05;100.00;90681.34;4994502;28;20200;-87
2021/03/19 04:01:11;;;;;;;10.37;9.40;;;;;;;0.90;100.00;90697.38;4994586;28;20251;-86
2021/03/19 04:03:38;;;;;;;10.53;9.07;;;;;;;1.12;100.00;90646.53;4994501;28;20737;-87
2021/03/19 04:06:07;;;;;;;10.40;9.00;;;;;;;1.10;100.00;90652.97;4994874;28;20303;-86
2021/03/19 04:08:34;;;;;;;19.10;13.53;;;;;;;0.95;100.00;90669.06;4994443;28;20279;-86
2021/03/19 04:11:03;;;;;;;32.00;20.13;;;;;;;0.98;100.00;90649.72;4994540;28;20240;-86
2021/03/19 04:13:31;;;;;;;28.40;18.20;;;;;;;1.10;100.00;90624.53;4994372;28;20199;-86
2021/03/19 04:16:00;;;;;;;15.93;10.87;;;;;;;1.02;100.00;90636.06;4991912;28;20275;-86
2021/03/19 04:18:27;;;;;;;12.13;9.53;;;;;;;1.06;100.00;90606.13;5005243;28;20286;-87
2021/03/19 04:20:56;;;;;;;9.67;8.77;;;;;;;1.02;100.00;90612.81;4995634;28;20286;-87
2021/03/19 04:23:24;;;;;;;9.57;7.93;;;;;;;1.07;100.00;90605.09;4994612;28;20196;-87
2021/03/19 04:25:51;;;;;;;8.97;7.97;;;;;;;1.10;100.00;90603.84;4993522;28;20296;-86
2021/03/19 04:28:21;;;;;;;9.20;8.30;;;;;;;1.01;100.00;90608.66;4994309;28;20661;-87
2021/03/19 04:30:49;;;;;;;14.47;12.97;;;;;;;1.02;100.00;90612.03;4994104;28;20231;-86
2021/03/19 04:33:19;;;;;;;21.83;17.73;;;;;;;1.12;100.00;90591.47;4994048;28;20285;-86
2021/03/19 04:35:47;;;;;;;15.03;13.43;;;;;;;1.02;100.00;90605.06;4994090;28;20629;-86
2021/03/19 04:38:18;;;;;;;16.43;13.87;;;;;;;1.15;100.00;90570.31;4993931;28;20295;-86
2021/03/19 04:40:46;;;;;;;27.03;18.43;;;;;;;1.12;100.00;90591.47;4993993;28;20727;-86
2021/03/19 04:43:15;;;;;;;14.70;12.13;;;;;;;1.08;100.00;90603.31;4994253;28;20211;-87
2021/03/19 04:45:44;;;;;;;14.90;11.90;;;;;;;1.05;100.00;90607.16;4993889;28;20277;-87
2021/03/19 04:48:11;;;;;;;19.73;15.27;;;;;;;1.10;100.00;90620.13;4974200;28;20264;-87
2021/03/19 04:50:40;;;;;;;16.67;13.13;;;;;;;1.10;100.00;90619.34;4974126;28;20208;-87
2021/03/19 04:53:07;;;;;;;12.97;11.33;;;;;;;1.01;100.00;90647.44;4974226;28;20197;-87
2021/03/19 04:55:34;;;;;;;15.43;12.83;;;;;;;1.00;100.00;90651.00;4974507;28;20201;-87
2021/03/19 04:58:00;;;;;;;33.83;23.33;;;;;;;0.98;100.00;90653.06;4974154;28;20296;-87
2021/03/19 05:00:27;;;;;;;33.40;23.50;;;;;;;1.11;100.00;90634.63;4978429;28;20207;-84
2021/03/19 05:02:55;;;;;;;22.87;17.43;;;;;;;1.23;100.00;90624.16;4995833;28;20200;-84
2021/03/19 05:05:25;;;;;;;16.20;13.20;;;;;;;1.15;100.00;90646.06;5012876;28;20302;-86
2021/03/19 05:07:54;;;;;;;12.83;11.53;;;;;;;1.19;100.00;90654.91;5012893;28;20254;-87
2021/03/19 05:10:24;;;;;;;18.50;15.00;;;;;;;1.26;100.00;90656.53;5011709;28;20199;-86
2021/03/19 05:12:53;;;;;;;18.27;15.43;;;;;;;1.27;100.00;90665.84;5012819;28;20184;-86
2021/03/19 05:15:20;;;;;;;23.07;17.60;;;;;;;1.13;100.00;90699.78;5012603;28;20199;-85
2021/03/19 05:17:47;;;;;;;24.37;17.20;;;;;;;1.10;100.00;90704.66;5013118;28;20195;-86
2021/03/19 05:20:15;;;;;;;13.40;10.63;;;;;;;1.34;100.00;90643.94;5013042;28;20196;-87
2021/03/19 05:22:42;;;;;;;13.50;11.07;;;;;;;1.29;100.00;90674.16;5013170;28;20755;-87
2021/03/19 05:25:15;;;;;;;10.40;9.27;;;;;;;1.31;100.00;90682.44;5013811;28;20239;-87
2021/03/19 05:27:42;;;;;;;19.77;16.10;;;;;;;1.48;100.00;90670.22;5013011;28;20656;-86
2021/03/19 05:30:12;;;;;;;10.70;9.40;;;;;;;1.49;100.00;90681.34;5012928;28;20318;-86
2021/03/19 05:32:39;;;;;;;8.93;8.03;;;;;;;1.50;100.00;90706.22;5012854;28;20588;-87
2021/03/19 05:35:08;;;;;;;9.20;8.27;;;;;;;1.44;100.00;90739.00;5012973;28;20550;-86
2021/03/19 05:37:35;;;;;;;9.47;8.47;;;;;;;1.35;100.00;90761.09;5012765;28;20199;-86
2021/03/19 05:40:04;;;;;;;12.07;9.80;;;;;;;1.25;100.00;90781.63;5012753;28;20274;-87
2021/03/19 05:42:35;;;;;;;10.10;9.03;;;;;;;1.50;100.00;90739.84;5012108;28;20191;-86
2021/03/19 05:45:12;;;;;;;11.33;9.23;;;;;;;1.53;100.00;90749.72;5012583;28;20271;-87
2021/03/19 05:47:39;;;;;;;13.40;11.53;;;;;;;1.65;100.00;90740.03;5012765;28;20671;-86
2021/03/19 05:50:20;;;;;;;117.97;72.80;;;;;;;1.68;100.00;90731.78;5012662;28;20203;-88
2021/03/19 05:52:49;;;;;;;51.47;37.43;;;;;;;1.67;100.00;90725.84;5012831;28;20226;-87
2021/03/19 05:55:19;;;;;;;33.33;27.00;;;;;;;1.65;100.00;90734.84;5012641;28;20199;-87
2021/03/19 05:57:47;;;;;;;20.03;17.93;;;;;;;1.51;100.00;90760.28;5012781;28;20180;-86
2021/03/19 06:00:18;;;;;;;28.30;22.47;;;;;;;1.67;100.00;90728.44;5012420;28;20286;-87
2021/03/19 06:02:46;;;;;;;15.27;12.90;;;;;;;1.66;100.00;90744.97;5012521;28;20249;-87
2021/03/19 06:05:17;;;;;;;18.80;15.30;;;;;;;1.52;100.00;90779.94;5012538;28;20199;-86
2021/03/19 06:07:47;;;;;;;22.63;17.80;;;;;;;1.43;100.00;90786.56;5012853;28;20270;-88
2021/03/19 06:10:26;;;;;;;13.07;11.57;;;;;;;1.54;100.00;90741.72;5012513;28;20262;-85
2021/03/19 06:13:07;;;;;;;12.07;10.77;;;;;;;1.66;100.00;90706.16;5012704;28;20655;-85
2021/03/19 06:15:37;;;;;;;12.90;11.47;;;;;;;1.43;100.00;90740.78;5012872;28;20641;-86
2021/03/19 06:18:18;;;;;;;15.17;13.60;;;;;;;1.39;100.00;90744.88;5012515;28;20203;-85
2021/03/19 06:20:54;;;;;;;29.77;22.73;;;;;;;1.40;100.00;90706.88;5012693;28;20633;-86
2021/03/19 06:23:23;;;;;;;22.37;18.93;;;;;;;1.52;100.00;90636.91;5014097;28;20183;-88
2021/03/19 06:26:06;;;;;;;30.37;22.93;;;;;;;1.54;100.00;90602.03;5015415;28;20203;-86
2021/03/19 06:28:36;;;;;;;10.50;9.20;;;;;;;1.47;100.00;90614.38;5015586;28;20242;-85
2021/03/19 06:31:23;;;;;;;15.70;12.27;;;;;;;1.44;100.00;90614.84;5016263;28;20188;-86
2021/03/19 06:34:10;;;;;;;10.57;9.03;;;;;;;1.44;100.00;90583.81;5016649;28;20199;-86
2021/03/19 06:36:56;;;;;;;10.13;8.63;;;;;;;1.45;100.00;90538.81;5017804;28;20243;-86
2021/03/19 06:39:27;;;;;;;23.00;15.93;;;;;;;1.63;100.00;90470.44;5016654;28;20193;-86
2021/03/19 06:42:03;;;;;;;39.10;10.60;;;;;;;1.38;100.00;90464.00;5017034;28;20192;-85
2021/03/19 06:44:33;;;;;;;19.37;8.97;;;;;;;1.30;100.00;90414.56;5019129;28;20646;-87
2021/03/19 06:47:03;;;;;;;13.70;9.00;;;;;;;1.35;100.00;90331.84;5017232;28;20203;-86
2021/03/19 06:49:46;;;;;;;14.07;10.90;;;;;;;1.49;100.00;90249.44;5018328;28;20305;-86
2021/03/19 06:52:22;;;;;;;12.27;10.70;;;;;;;1.51;100.00;90167.22;5016937;28;20244;-87
2021/03/19 06:54:52;;;;;;;16.20;12.13;;;;;;;1.56;100.00;90090.41;5017258;28;20191;-86
2021/03/19 06:57:20;;;;;;;11.53;9.73;;;;;;;1.41;100.00;90070.47;5016861;28;20238;-86
2021/03/19 06:59:50;;;;;;;12.07;9.33;;;;;;;1.73;100.00;89940.13;5016875;28;20219;-87
2021/03/19 07:02:58;;;;;;;11.00;9.90;;;;;;;1.59;100.00;89916.63;5016302;28;20230;-86
2021/03/19 07:05:52;;;;;;;14.60;12.37;;;;;;;1.71;100.00;89830.97;4996143;28;20215;-87
2021/03/19 07:08:39;;;;;;;13.70;11.40;;;;;;;1.78;100.00;89800.41;5015652;28;20200;-87
2021/03/19 07:11:26;;;;;;;12.33;9.87;;;;;;;1.82;100.00;89775.56;5016592;28;20242;-86
2021/03/19 07:14:33;;;;;;;11.67;9.50;;;;;;;1.71;100.00;89799.16;5016573;28;20647;-86
2021/03/19 07:17:16;;;;;;;12.37;9.87;;;;;;;1.65;100.00;89817.25;5002584;28;20211;-86
2021/03/19 07:20:00;;;;;;;11.20;9.60;;;;;;;1.60;100.00;89829.44;5016185;28;20215;-86
2021/03/19 07:22:48;;;;;;;10.60;8.13;;;;;;;1.60;100.00;89837.22;5015556;28;20187;-87
2021/03/19 07:25:37;;;;;;;13.53;10.10;;;;;;;1.71;100.00;89807.69;5020089;28;20204;-87
2021/03/19 07:28:31;;;;;;;9.57;8.47;;;;;;;1.52;100.00;89855.81;5015955;28;20243;-87
2021/03/19 07:31:15;;;;;;;9.73;8.73;;;;;;;1.58;100.00;89840.03;5015140;28;20641;-86
2021/03/19 07:34:11;;;;;;;10.90;9.13;;;;;;;1.66;100.00;89836.94;5015656;28;20700;-86
2021/03/19 07:36:51;;;;;;;10.83;9.23;;;;;;;1.70;100.00;89831.22;5012652;28;20234;-87
2021/03/19 07:39:46;;;;;;;9.60;8.20;;;;;;;1.71;100.00;89822.44;5014820;28;20184;-87
2021/03/19 07:42:39;;;;;;;12.93;10.43;;;;;;;1.78;100.00;89808.19;5014986;28;20652;-86
2021/03/19 07:45:15;;;;;;;17.03;14.77;;;;;;;1.89;100.00;89790.81;5015018;28;21099;-86
2021/03/19 07:48:02;;;;;;;17.67;14.13;;;;;;;2.09;100.00;89782.97;5014813;28;20187;-86
2021/03/19 07:50:37;;;;;;;17.67;14.17;;;;;;;2.08;100.00;89827.25;5015222;28;20191;-86
2021/03/19 07:53:29;;;;;;;17.97;15.53;;;;;;;2.12;100.00;89867.84;5015816;28;20218;-86
2021/03/19 07:55:59;;;;;;;23.90;19.20;;;;;;;2.14;100.00;89907.19;5015831;28;20278;-87
2021/03/19 07:58:50;;;;;;;16.30;12.93;;;;;;;2.05;100.00;89970.13;5015665;28;20215;-86
2021/03/19 08:01:25;;;;;;;15.10;11.77;;;;;;;2.01;100.00;90018.25;5015909;28;20180;-87
2021/03/19 08:04:00;;;;;;;17.40;13.80;;;;;;;2.22;100.00;90008.66;5016414;28;20214;-87
2021/03/19 08:06:33;;;;;;;16.67;12.87;;;;;;;2.21;100.00;90033.75;5015340;28;20184;-86
2021/03/19 08:09:06;;;;;;;22.90;20.27;;;;;;;2.17;100.00;90078.56;5014983;28;20254;-87
2021/03/19 08:11:39;;;;;;;23.37;20.40;;;;;;;2.20;100.00;90115.06;5015447;28;20220;-86
2021/03/19 08:14:25;;;;;;;17.63;15.23;;;;;;;2.27;100.00;90120.00;5015016;28;20191;-86
2021/03/19 08:16:58;;;;;;;15.50;13.77;;;;;;;2.19;100.00;90178.25;5015162;28;20190;-87
2021/03/19 08:19:30;;;;;;;24.00;19.20;;;;;;;2.21;100.00;90215.00;5014880;28;20222;-86
2021/03/19 08:22:03;;;;;;;14.03;12.50;;;;;;;2.05;100.00;90263.41;5014901;28;20622;-86
2021/03/19 08:24:41;;;;;;;21.27;16.97;;;;;;;2.14;100.00;90259.25;5014616;28;20211;-86
2021/03/19 08:27:14;;;;;;;25.23;19.70;;;;;;;2.17;100.00;90275.34;5014540;28;20191;-86
2021/03/19 08:29:59;;;;;;;23.47;18.67;;;;;;;1.98;100.00;90319.81;5015423;28;20218;-86
2021/03/19 08:32:42;;;;;;;32.93;25.30;;;;;;;1.94;100.00;90349.81;5014255;28;20187;-87
2021/03/19 08:35:20;;;;;;;49.70;35.90;;;;;;;1.94;100.00;90349.81;5014268;28;20195;-87
2021/03/19 08:37:55;;;;;;;45.53;34.43;;;;;;;1.85;100.00;90372.00;5014411;28;20218;-87
2021/03/19 08:40:34;;;;;;;49.17;35.90;;;;;;;1.83;100.00;90377.41;5014632;28;20190;-88
2021/03/19 08:43:05;;;;;;;31.37;24.50;;;;;;;1.84;100.00;90365.28;5014168;28;20281;-88
2021/03/19 08:45:32;;;;;;;37.43;29.57;;;;;;;1.80;100.00;90369.38;5014266;28;20245;-89
2021/03/19 08:48:02;;;;;;;32.23;25.30;;;;;;;1.82;100.00;90359.56;5014315;28;20977;-89
2021/03/19 08:50:35;;;;;;;32.40;26.83;;;;;;;1.69;100.00;90373.72;5013583;28;20195;-87
2021/03/19 08:53:06;;;;;;;29.20;24.67;;;;;;;1.80;100.00;90344.31;5014137;28;20286;-89
2021/03/19 08:55:35;;;;;;;25.93;22.90;;;;;;;1.75;100.00;90356.41;5014374;28;20183;-89
2021/03/19 08:58:37;;;;;;;20.33;17.80;;;;;;;1.72;100.00;90364.69;5014034;28;20254;-87
2021/03/19 09:01:06;;;;;;;21.17;17.53;;;;;;;1.70;100.00;90369.31;5013939;28;20698;-88
2021/03/19 09:03:56;;;;;;;23.90;19.93;;;;;;;1.72;100.00;90360.28;5014749;28;20254;-90
2021/03/19 09:06:33;;;;;;;22.77;18.13;;;;;;;1.52;100.00;90404.91;5013947;28;20206;-89
2021/03/19 09:09:15;;;;;;;19.50;17.47;;;;;;;1.50;100.00;90411.38;5014012;28;20214;-89
2021/03/19 09:12:06;;;;;;;17.53;15.07;;;;;;;1.51;100.00;90390.41;5014021;28;20261;-88
2021/03/19 09:14:46;;;;;;;18.27;14.10;;;;;;;1.57;100.00;90422.28;5013691;28;20615;-89
2021/03/19 09:17:35;;;;;;;18.87;15.67;;;;;;;1.48;100.00;90445.22;5014253;28;20223;-89
2021/03/19 09:20:13;;;;;;;18.77;15.47;;;;;;;1.56;100.00;90449.97;5013460;28;20237;-89
2021/03/19 09:22:47;;;;;;;20.17;17.33;;;;;;;1.70;100.00;90414.09;5013335;28;20278;-89
2021/03/19 09:25:36;;;;;;;21.43;15.80;;;;;;;1.75;100.00;90392.66;5014168;28;20199;-88
2021/03/19 09:28:38;;;;;;;18.40;15.30;;;;;;;1.96;100.00;90341.78;5013584;28;20188;-89
2021/03/19 09:31:34;;;;;;;16.70;14.47;;;;;;;1.98;100.00;90345.69;5013979;28;20252;-89
2021/03/19 09:34:09;;;;;;;21.83;16.47;;;;;;;1.92;100.00;90388.09;5013517;28;20195;-89
2021/03/19 09:37:13;;;;;;;19.13;14.93;;;;;;;1.92;100.00;90384.72;5013781;28;20265;-89
2021/03/19 09:40:01;;;;;;;19.37;16.37;;;;;;;2.05;100.00;90361.00;5013249;28;20195;-89
2021/03/19 09:42:47;;;;;;;33.93;28.83;;;;;;;2.00;100.00;90385.03;5013335;28;20581;-89
2021/03/19 09:45:35;;;;;;;17.57;13.90;;;;;;;2.02;100.00;90414.03;5012806;28;20238;-89
2021/03/19 09:48:26;;;;;;;27.47;22.73;;;;;;;2.12;100.00;90582.38;5013234;28;20656;-88
2021/03/19 09:51:00;;;;;;;18.67;15.33;;;;;;;1.96;100.00;90645.41;5013399;28;20632;-89
2021/03/19 09:53:31;;;;;;;16.93;13.77;;;;;;;1.95;100.00;90667.13;5013108;28;20187;-88
2021/03/19 09:56:00;;;;;;;16.27;13.57;;;;;;;1.64;100.00;90752.19;5013021;28;20226;-89
2021/03/19 09:58:43;;;;;;;17.57;13.00;;;;;;;1.31;100.00;90829.81;5013024;28;20668;-88
2021/03/19 10:01:15;;;;;;;16.73;13.20;;;;;;;1.41;100.00;90791.19;5013897;28;20736;-89
2021/03/19 10:03:46;;;;;;;17.63;12.87;;;;;;;1.46;100.00;90787.91;5019710;28;20680;-89
2021/03/19 10:06:18;;;;;;;15.63;12.50;;;;;;;1.48;100.00;90784.03;5019651;28;20202;-89
2021/03/19 10:08:46;;;;;;;14.13;11.70;;;;;;;1.46;100.00;90799.03;5019636;28;20219;-88
2021/03/19 10:11:18;;;;;;;34.83;24.30;;;;;;;1.53;100.00;90796.28;5019367;28;20195;-89
2021/03/19 10:13:46;;;;;;;16.77;14.40;;;;;;;1.69;100.00;90794.66;5002488;28;20199;-89
2021/03/19 10:16:23;;;;;;;15.10;13.27;;;;;;;1.58;100.00;90833.34;5019329;28;20195;-89
2021/03/19 10:18:51;;;;;;;15.87;12.67;;;;;;;1.85;100.00;90810.16;5019514;28;20246;-89
2021/03/19 10:21:27;;;;;;;16.40;13.93;;;;;;;1.83;100.00;90824.34;5019764;28;20742;-88
2021/03/19 10:24:02;;;;;;;14.87;12.30;;;;;;;1.99;100.00;90805.41;5002073;28;20214;-88
2021/03/19 10:26:38;;;;;;;16.47;13.83;;;;;;;2.21;100.00;90784.69;4986243;28;20206;-89
2021/03/19 10:29:11;;;;;;;17.17;13.80;;;;;;;2.30;100.00;90782.47;5019267;28;20230;-88
2021/03/19 10:31:44;;;;;;;21.60;16.97;;;;;;;2.44;100.00;90773.28;5019690;28;20565;-90
2021/03/19 10:34:27;;;;;;;50.10;35.83;;;;;;;2.67;100.00;90746.28;5019218;28;20195;-90
2021/03/19 10:37:00;;;;;;;44.43;33.60;;;;;;;2.72;100.00;90774.06;5019152;28;20241;-89
2021/03/19 10:39:34;;;;;;;42.67;34.10;;;;;;;2.48;100.00;90854.66;5019108;28;20188;-88
2021/03/19 10:42:16;;;;;;;25.40;21.97;;;;;;;2.69;100.00;90837.53;5019428;28;20627;-89
2021/03/19 10:44:54;;;;;;;26.63;22.30;;;;;;;2.77;100.00;90855.25;5018977;28;20187;-88
2021/03/19 10:47:28;;;;;;;30.80;22.93;;;;;;;2.85;100.00;90887.72;5019350;28;20190;-89
2021/03/19 10:50:03;;;;;;;52.30;41.60;;;;;;;2.87;100.00;90924.53;5019014;28;20207;-90
2021/03/19 10:52:35;;;;;;;44.97;34.57;;;;;;;2.97;100.00;90929.84;5019263;28;20183;-90
2021/03/19 10:55:06;;;;;;;19.97;17.87;;;;;;;2.74;100.00;91007.88;5019156;28;20227;-88
2021/03/19 10:57:35;;;;;;;14.67;13.00;;;;;;;2.78;100.00;91024.50;5019394;28;20602;-88
2021/03/19 11:00:29;;;;;;;16.13;12.90;;;;;;;2.97;100.00;91012.81;5019089;28;20205;-88
2021/03/19 11:02:58;;;;;;;18.60;14.87;;;;;;;3.10;100.00;91022.81;5019581;28;20222;-89
2021/03/19 11:05:26;;;;;;;27.07;20.23;;;;;;;3.07;100.00;91069.19;5019208;28;20209;-88
2021/03/19 11:07:54;;;;;;;21.83;16.57;;;;;;;3.15;100.00;91089.53;5018951;28;20196;-88
2021/03/19 11:10:25;;;;;;;11.97;10.77;;;;;;;3.08;100.00;91133.81;5018650;28;20319;-88
2021/03/19 11:12:54;;;;;;;19.97;16.83;;;;;;;3.09;100.00;91173.50;5017930;28;20663;-89
2021/03/19 11:15:25;;;;;;;13.33;11.50;;;;;;;3.12;100.00;91193.78;5015443;28;20211;-89
2021/03/19 11:18:17;;;;;;;8.83;8.00;;;;;;;3.04;100.00;91239.03;5016356;28;20198;-89
2021/03/19 11:20:47;;;;;;;9.93;8.93;;;;;;;3.15;100.00;91262.53;5015575;28;20234;-89
2021/03/19 11:23:26;;;;;;;9.47;8.57;;;;;;;3.20;100.00;91307.50;5015632;28;20245;-89
2021/03/19 11:25:55;;;;;;;10.77;9.50;;;;;;;3.26;100.00;91340.28;5015996;28;20676;-88
2021/03/19 11:28:24;;;;;;;12.97;11.17;;;;;;;3.48;100.00;91326.59;5015300;28;20206;-88
2021/03/19 11:30:51;;;;;;;10.63;9.63;;;;;;;3.49;100.00;91372.28;5015702;28;20200;-88
2021/03/19 11:33:20;;;;;;;8.33;7.40;;;;;;;3.24;100.00;91440.13;5015451;28;20200;-88
2021/03/19 11:36:07;;;;;;;9.33;8.27;;;;;;;3.17;100.00;91476.56;5015298;28;20199;-88
2021/03/19 11:38:37;;;;;;;34.57;24.40;;;;;;;3.27;100.00;91481.16;5015324;28;20215;-88
2021/03/19 11:41:22;;;;;;;20.70;16.10;;;;;;;3.18;100.00;91508.50;5015248;28;20187;-87
2021/03/19 11:43:49;;;;;;;9.00;7.70;;;;;;;3.23;100.00;91539.72;5015024;28;20278;-88
2021/03/19 11:46:15;;;;;;;8.53;7.73;;;;;;;2.91;100.00;91623.13;5014935;28;20285;-88
2021/03/19 11:48:43;;;;;;;9.33;8.43;;;;;;;3.06;100.00;91620.06;5014763;28;20739;-87
2021/03/19 11:51:14;;;;;;;8.20;7.40;;;;;;;2.96;100.00;91645.78;5015297;28;20233;-88
2021/03/19 11:53:42;;;;;;;8.03;7.20;;;;;;;2.83;100.00;91683.84;5015410;28;20322;-87
2021/03/19 11:56:09;;;;;;;8.03;7.23;;;;;;;2.69;100.00;91723.16;5014784;28;20241;-88
2021/03/19 11:58:36;;;;;;;8.10;7.30;;;;;;;2.70;100.00;91735.13;5014691;28;20195;-88